Time;durP1;ratioP1;P1;durP2;ratioP2;P2;SDS_P1;SDS_P2;PMS_P1;PMS_P2;Temp;Humidity;BMP_temperature;BMP_pressure;BME280_temperature;BME280_humidity;BME280_pressure;Samples;Min_cycle;Max_cycle;Signal;HPM_P1;HPM_P2
2021/11/02 00:02:10;;;;;;;;;;;;;;;11.80;100.00;96967.84;4992145;28;19933;-86
2021/11/02 00:04:38;;;;;;;;;;;;;;;11.68;100.00;96968.88;5044689;28;19932;-86
2021/11/02 00:07:06;;;;;;;;;;;;;;;11.75;100.00;96957.34;5070870;28;19932;-86
2021/11/02 00:09:35;;;;;;;;;;;;;;;11.79;100.00;96968.31;5071236;28;20399;-86
2021/11/02 00:12:05;;;;;;;;;;;;;;;11.54;100.00;96969.59;5054683;28;19924;-86
2021/11/02 00:14:32;;;;;;;;;;;;;;;11.15;100.00;96968.06;5034179;28;19929;-86
2021/11/02 00:17:08;;;;;;;;;;;;;;;11.74;100.00;96966.97;5020580;28;20035;-86
2021/11/02 00:19:40;;;;;;;;;;;;;;;11.80;100.00;96964.28;5071225;28;20018;-85
2021/11/02 00:22:15;;;;;;;;;;;;;;;11.70;100.00;96965.59;5052367;28;20284;-86
2021/11/02 00:27:21;;;;;;;;;;;;;;;11.94;100.00;96957.91;5091632;28;19958;-86
2021/11/02 00:29:48;;;;;;;;;;;;;;;12.06;100.00;96960.41;5058134;28;19928;-85
2021/11/02 00:32:16;;;;;;;;;;;;;;;11.54;100.00;96960.47;5075639;28;19951;-86
2021/11/02 00:34:43;;;;;;;;;;;;;;;11.85;100.00;96961.56;5075644;28;20383;-85
2021/11/02 00:37:10;;;;;;;;;;;;;;;11.89;100.00;96962.16;5075137;28;20290;-86
2021/11/02 00:39:38;;;;;;;;;;;;;;;11.89;100.00;96959.34;5054631;28;19929;-86
2021/11/02 00:42:05;;;;;;;;;;;;;;;11.31;100.00;96964.06;5074665;28;19931;-86
2021/11/02 00:44:32;;;;;;;;;;;;;;;11.21;100.00;96968.94;5074427;28;20069;-85
2021/11/02 00:47:00;;;;;;;;;;;;;;;11.06;100.00;96967.38;5069899;28;20187;-86
2021/11/02 00:49:28;;;;;;;;;;;;;;;11.44;100.00;96964.56;5074241;28;20329;-85
2021/11/02 00:51:55;;;;;;;;;;;;;;;11.54;100.00;96975.19;5070930;28;19982;-85
2021/11/02 00:54:22;;;;;;;;;;;;;;;11.75;100.00;96971.31;5064141;28;19932;-85
2021/11/02 00:56:49;;;;;;;;;;;;;;;11.83;100.00;96964.06;5072437;28;20285;-86
2021/11/02 00:59:16;;;;;;;;;;;;;;;11.76;100.00;96970.06;5037731;28;19932;-86
2021/11/02 01:01:43;;;;;;;;;;;;;;;11.61;100.00;96968.47;5056927;28;19928;-86
2021/11/02 01:04:11;;;;;;;;;;;;;;;11.85;100.00;96961.56;5060678;28;19924;-85
2021/11/02 01:06:38;;;;;;;;;;;;;;;11.63;100.00;96969.56;5061602;28;19925;-86
2021/11/02 01:09:07;;;;;;;;;;;;;;;11.93;100.00;96970.34;5072893;28;20019;-85
2021/11/02 01:11:37;;;;;;;;;;;;;;;11.74;100.00;96985.78;5073963;28;19925;-86
2021/11/02 01:14:05;;;;;;;;;;;;;;;11.57;100.00;96974.22;5037093;28;19925;-86
2021/11/02 01:16:34;;;;;;;;;;;;;;;11.38;100.00;96975.66;5063867;28;19935;-85
2021/11/02 01:19:02;;;;;;;;;;;;;;;11.47;100.00;96980.38;5059750;28;19968;-85
2021/11/02 01:21:31;;;;;;;;;;;;;;;11.53;100.00;96973.66;5073855;28;19924;-85
2021/11/02 01:24:00;;;;;;;;;;;;;;;11.51;100.00;96978.94;5062097;28;19924;-86
2021/11/02 01:26:27;;;;;;;;;;;;;;;11.60;100.00;96983.72;5050851;28;19933;-85
2021/11/02 01:28:55;;;;;;;;;;;;;;;11.75;100.00;96971.31;5063269;28;19930;-85
2021/11/02 01:31:23;;;;;;;;;;;;;;;11.97;100.00;96977.31;5059107;28;19991;-85
2021/11/02 01:33:50;;;;;;;;;;;;;;;11.43;100.00;96977.78;5081727;28;20411;-86
2021/11/02 01:36:18;;;;;;;;;;;;;;;11.47;100.00;96977.59;5067494;28;19924;-85
2021/11/02 01:38:51;;;;;;;;;;;;;;;11.64;100.00;96981.53;5025094;28;19968;-85
2021/11/02 01:41:22;;;;;;;;;;;;;;;11.71;100.00;96981.91;5036704;28;19975;-85
2021/11/02 01:43:56;;;;;;;;;;;;;;;11.74;100.00;96983.75;5069864;28;19936;-86
2021/11/02 01:46:25;;;;;;;;;;;;;;;11.16;100.00;96983.59;5052978;28;20450;-85
2021/11/02 01:48:55;;;;;;;;;;;;;;;11.59;100.00;96993.34;5053219;28;20456;-85
2021/11/02 01:51:25;;;;;;;;;;;;;;;11.71;100.00;96984.72;5069791;28;20392;-85
2021/11/02 01:53:52;;;;;;;;;;;;;;;11.37;100.00;96985.31;5053056;28;19935;-85
2021/11/02 01:56:21;;;;;;;;;;;;;;;11.05;100.00;96988.94;5086920;28;19925;-86
2021/11/02 01:58:52;;;;;;;;;;;;;;;11.29;100.00;96989.72;5033023;28;19929;-86
2021/11/02 02:01:40;;;;;;;;;;;;;;;11.82;100.00;96987.72;5024131;28;19925;-85
2021/11/02 02:04:27;;;;;;;;;;;;;;;11.73;100.00;96987.03;5043131;28;19925;-86
2021/11/02 02:07:07;;;;;;;;;;;;;;;11.90;100.00;96986.09;5052787;28;19925;-86
2021/11/02 02:09:42;;;;;;;;;;;;;;;11.65;100.00;96978.25;5069367;28;19968;-86
2021/11/02 02:12:24;;;;;;;;;;;;;;;11.81;100.00;96977.78;5052753;28;20384;-86
2021/11/02 02:14:56;;;;;;;;;;;;;;;11.62;100.00;96976.41;5048769;28;20119;-86
2021/11/02 02:17:29;;;;;;;;;;;;;;;11.29;100.00;96969.34;5036023;28;19974;-85
2021/11/02 02:20:08;;;;;;;;;;;;;;;11.71;100.00;96981.13;5036122;28;19925;-85
2021/11/02 02:22:53;;;;;;;;;;;;;;;11.57;100.00;96979.06;5037030;28;19932;-85
2021/11/02 02:25:20;;;;;;;;;;;;;;;11.17;100.00;96975.97;5053901;28;19924;-85
2021/11/02 02:28:07;;;;;;;;;;;;;;;10.86;100.00;96976.34;5047514;28;19931;-85
2021/11/02 02:30:37;;;;;;;;;;;;;;;10.86;100.00;96987.50;5035926;28;19936;-85
2021/11/02 02:33:05;;;;;;;;;;;;;;;10.94;100.00;96983.13;5063120;28;19925;-85
2021/11/02 02:35:34;;;;;;;;;;;;;;;10.88;100.00;96985.03;5034289;28;19963;-85
2021/11/02 02:38:02;;;;;;;;;;;;;;;11.45;100.00;96983.66;5053383;28;19931;-86
2021/11/02 02:40:30;;;;;;;;;;;;;;;11.83;100.00;96985.69;5067067;28;19924;-86
2021/11/02 02:42:58;;;;;;;;;;;;;;;11.69;100.00;96987.22;5094004;28;19924;-85
2021/11/02 02:45:26;;;;;;;;;;;;;;;11.78;100.00;96983.56;5055488;28;20294;-86
2021/11/02 02:47:54;;;;;;;;;;;;;;;11.71;100.00;96983.94;5038920;28;19935;-85
2021/11/02 02:50:24;;;;;;;;;;;;;;;11.70;100.00;96985.19;5040985;28;19925;-85
2021/11/02 02:52:53;;;;;;;;;;;;;;;11.44;100.00;96982.13;5058870;28;20019;-85
2021/11/02 02:55:22;;;;;;;;;;;;;;;11.07;100.00;96983.66;5056084;28;19929;-85
2021/11/02 02:57:54;;;;;;;;;;;;;;;11.37;100.00;96984.53;5075620;28;20089;-85
2021/11/02 03:00:21;;;;;;;;;;;;;;;11.72;100.00;96972.25;5075231;28;20413;-85
2021/11/02 03:02:50;;;;;;;;;;;;;;;11.75;100.00;96970.53;5075444;28;19981;-85
2021/11/02 03:05:19;;;;;;;;;;;;;;;11.74;100.00;96969.75;5058852;28;20376;-85
2021/11/02 03:07:54;;;;;;;;;;;;;;;11.72;100.00;96972.25;5074903;28;20023;-85
2021/11/02 03:10:22;;;;;;;;;;;;;;;11.89;100.00;96958.59;5075509;28;19930;-85
2021/11/02 03:12:54;;;;;;;;;;;;;;;11.28;100.00;96965.81;5075041;28;20296;-85
2021/11/02 03:18:36;;;;;;;;;;;;;;;11.68;100.00;96968.88;5055009;28;19970;-85
2021/11/02 03:57:08;;;;;;;;;;;;;;;10.54;100.00;96971.56;5016590;28;19929;-84
2021/11/02 04:27:31;;;;;;;;;;;;;;;10.80;100.00;96992.97;5054072;28;19925;-85
2021/11/02 05:48:42;;;;;;;;;;;;;;;10.87;100.00;97017.00;5001588;28;19925;-85
2021/11/02 05:56:25;;;;;;;;;;;;;;;10.40;100.00;97017.69;5012377;28;19925;-85
2021/11/02 05:59:59;;;;;;;;;;;;;;;10.41;100.00;97015.66;4990104;28;20003;-85
2021/11/02 06:01:59;;;;;;;;;;;;;;;10.66;100.00;97009.69;4980867;28;19956;-85
2021/11/02 06:07:34;;;;;;;;;;;;;;;10.77;100.00;97024.66;4990012;28;19925;-85
2021/11/02 06:10:17;;;;;;;;;;;;;;;10.53;100.00;97031.44;5015648;28;19931;-85
2021/11/02 06:29:30;;;;;;;;;;;;;;;10.05;100.00;97038.06;5075944;28;19924;-85
2021/11/02 06:32:04;;;;;;;;;;;;;;;10.14;100.00;97043.66;5076235;28;19928;-85
2021/11/02 06:34:44;;;;;;;;;;;;;;;10.03;100.00;97038.53;5039124;28;19925;-85
2021/11/02 06:41:59;;;;;;;;;;;;;;;10.63;100.00;97052.50;5055274;28;19925;-85
2021/11/02 06:43:08;;;;;;;;;;;;;;;10.05;100.00;97046.44;5061688;28;19973;-85
2021/11/02 06:59:50;;;;;;;;;;;;;;;9.29;100.00;97068.91;5093373;28;20405;-85
2021/11/02 07:19:17;;;;;;;;;;;;;;;9.62;100.00;97094.97;5074596;28;20386;-85
2021/11/02 07:24:49;;;;;;;;;;;;;;;10.49;100.00;97097.84;5054737;28;20018;-85
2021/11/02 08:46:10;;;;;;;;;;;;;;;13.02;100.00;97118.34;5077563;28;19928;-86
2021/11/02 08:48:38;;;;;;;;;;;;;;;12.81;100.00;97125.13;5057738;28;20291;-85
2021/11/02 08:51:06;;;;;;;;;;;;;;;12.80;100.00;97126.38;5051920;28;20067;-85
2021/11/02 08:53:34;;;;;;;;;;;;;;;12.70;100.00;97131.31;5077669;28;19927;-85
2021/11/02 08:56:09;;;;;;;;;;;;;;;13.02;100.00;97123.94;5077715;28;19949;-86
2021/11/02 08:58:37;;;;;;;;;;;;;;;12.72;100.00;97123.94;5095572;28;19927;-85
2021/11/02 09:01:05;;;;;;;;;;;;;;;12.82;100.00;97126.66;5061095;28;19924;-85
2021/11/02 09:03:33;;;;;;;;;;;;;;;12.94;100.00;97120.75;5060759;28;19924;-86
2021/11/02 09:06:03;;;;;;;;;;;;;;;12.58;100.00;97121.16;5044509;28;19931;-85
2021/11/02 09:08:38;;;;;;;;;;;;;;;12.72;100.00;97123.94;5057517;28;20310;-85
2021/11/02 09:11:06;;;;;;;;;;;;;;;12.89;100.00;97132.63;5047813;28;20418;-86
2021/11/02 09:13:37;;;;;;;;;;;;;;;13.18;100.00;97126.22;5077251;28;20384;-86
2021/11/02 09:16:07;;;;;;;;;;;;;;;13.49;100.00;97130.03;5040824;28;19933;-86
2021/11/02 09:18:35;;;;;;;;;;;;;;;13.28;100.00;97124.88;5066697;28;19924;-86
2021/11/02 09:21:03;;;;;;;;;;;;;;;13.58;100.00;97131.94;5073033;28;19924;-85
2021/11/02 09:23:30;;;;;;;;;;;;;;;13.18;100.00;97126.22;5064904;28;19925;-86
2021/11/02 09:26:01;;;;;;;;;;;;;;;13.07;100.00;97131.69;5057452;28;19951;-86
2021/11/02 09:28:29;;;;;;;;;;;;;;;13.56;100.00;97134.44;5077058;28;19935;-85
2021/11/02 09:30:58;;;;;;;;;;;;;;;13.37;100.00;97128.34;5076933;28;19928;-85
2021/11/02 09:33:25;;;;;;;;;;;;;;;13.68;100.00;97138.94;5040217;28;19924;-85
2021/11/02 09:35:59;;;;;;;;;;;;;;;13.49;100.00;97134.88;5072137;28;20390;-85
2021/11/02 09:38:30;;;;;;;;;;;;;;;14.05;100.00;97132.31;5076686;28;19931;-85
2021/11/02 09:41:00;;;;;;;;;;;;;;;13.94;100.00;97134.19;5060076;28;20311;-85
2021/11/02 09:43:37;;;;;;;;;;;;;;;14.10;100.00;97134.38;5040342;28;20272;-85
2021/11/02 09:46:08;;;;;;;;;;;;;;;14.00;100.00;97123.78;5067989;28;20283;-85
2021/11/02 09:48:57;;;;;;;;;;;;;;;13.47;100.00;97132.56;5056557;28;19924;-85
2021/11/02 09:51:48;;;;;;;;;;;;;;;13.96;100.00;97135.25;5053831;28;20369;-86
2021/11/02 09:54:42;;;;;;;;;;;;;;;14.16;100.00;97132.41;5098667;28;19924;-85
2021/11/02 09:57:21;;;;;;;;;;;;;;;14.43;100.00;97125.59;5093315;28;19974;-85
2021/11/02 10:00:08;;;;;;;;;;;;;;;14.08;100.00;97131.31;5076442;28;20425;-85
2021/11/02 10:03:03;;;;;;;;;;;;;;;14.20;100.00;97135.00;5082157;28;19932;-85
2021/11/02 10:05:33;;;;;;;;;;;;;;;14.83;100.00;97122.66;5076360;28;19929;-85
2021/11/02 10:08:22;;;;;;;;;;;;;;;14.23;100.00;97126.41;5077466;28;20425;-85
2021/11/02 10:11:10;;;;;;;;;;;;;;;14.57;100.00;97135.19;5056458;28;20023;-85
2021/11/02 10:13:48;;;;;;;;;;;;;;;14.04;100.00;97130.75;5103507;28;20206;-85
2021/11/02 10:16:18;;;;;;;;;;;;;;;14.37;100.00;97133.19;5044047;28;19991;-86
2021/11/02 10:18:47;;;;;;;;;;;;;;;13.94;100.00;97131.38;5037481;28;19928;-85
2021/11/02 10:21:17;;;;;;;;;;;;;;;14.43;100.00;97136.84;5043621;28;20283;-85
2021/11/02 10:23:54;;;;;;;;;;;;;;;14.38;100.00;97145.97;5039351;28;19928;-85
2021/11/02 10:26:26;;;;;;;;;;;;;;;14.43;100.00;97134.03;5055898;28;20024;-85
2021/11/02 10:28:58;;;;;;;;;;;;;;;14.08;100.00;97133.34;5071654;28;20284;-85
2021/11/02 10:31:33;;;;;;;;;;;;;;;14.17;100.00;97133.19;5025725;28;19934;-85
2021/11/02 10:34:24;;;;;;;;;;;;;;;14.32;100.00;97145.91;5052984;28;19931;-85
2021/11/02 10:36:55;;;;;;;;;;;;;;;14.53;100.00;97138.22;5068380;28;19925;-85
2021/11/02 10:39:28;;;;;;;;;;;;;;;14.80;100.00;97137.69;5075529;28;20022;-86
2021/11/02 10:42:10;;;;;;;;;;;;;;;14.01;100.00;97142.19;5055219;28;19924;-85
2021/11/02 10:44:44;;;;;;;;;;;;;;;14.07;100.00;97140.22;5054486;28;20440;-85
2021/11/02 10:47:22;;;;;;;;;;;;;;;14.41;100.00;97142.94;5078560;28;20189;-85
2021/11/02 10:50:09;;;;;;;;;;;;;;;14.61;100.00;97144.16;5093700;28;20373;-85
2021/11/02 10:52:37;;;;;;;;;;;;;;;14.13;100.00;97141.06;5058946;28;20237;-85
2021/11/02 10:55:11;;;;;;;;;;;;;;;14.76;100.00;97145.59;5075239;28;19924;-85
2021/11/02 10:58:00;;;;;;;;;;;;;;;14.97;100.00;97135.81;5075731;28;19947;-85
2021/11/02 11:00:29;;;;;;;;;;;;;;;14.77;100.00;97141.50;5058063;28;19932;-85
2021/11/02 11:03:04;;;;;;;;;;;;;;;14.39;100.00;97139.06;5075819;28;19931;-85
2021/11/02 11:05:32;;;;;;;;;;;;;;;14.41;100.00;97142.16;5058009;28;20445;-85
2021/11/02 11:08:01;;;;;;;;;;;;;;;13.88;100.00;97147.38;5038488;28;20445;-85
2021/11/02 11:10:29;;;;;;;;;;;;;;;13.47;100.00;97155.00;5070692;28;20298;-85
2021/11/02 11:12:57;;;;;;;;;;;;;;;13.22;100.00;97144.44;5058663;28;20018;-85
2021/11/02 11:15:30;;;;;;;;;;;;;;;12.52;100.00;97154.69;5093158;28;20469;-85
2021/11/02 11:18:04;;;;;;;;;;;;;;;12.03;100.00;97157.28;5038026;28;20331;-84
2021/11/02 11:20:32;;;;;;;;;;;;;;;12.05;100.00;97157.59;5086708;28;20054;-84
2021/11/02 11:23:03;;;;;;;;;;;;;;;11.67;100.00;97157.56;5038262;28;20023;-84
2021/11/02 11:25:45;;;;;;;;;;;;;;;11.57;100.00;97174.84;5068637;28;19959;-84
2021/11/02 11:28:13;;;;;;;;;;;;;;;12.38;100.00;97172.25;5075057;28;19928;-84
2021/11/02 11:30:44;;;;;;;;;;;;;;;12.84;100.00;97168.97;5074526;28;19931;-85
2021/11/02 11:33:18;;;;;;;;;;;;;;;12.62;100.00;97172.16;5071491;28;20410;-84
2021/11/02 11:35:49;;;;;;;;;;;;;;;12.86;100.00;97166.47;5071856;28;19928;-85
2021/11/02 11:38:17;;;;;;;;;;;;;;;13.13;100.00;97175.34;5054798;28;19948;-85
2021/11/02 11:40:45;;;;;;;;;;;;;;;12.98;100.00;97173.81;5084306;28;19958;-85
2021/11/02 11:43:14;;;;;;;;;;;;;;;13.09;100.00;97168.41;5055671;28;19960;-85
2021/11/02 11:45:42;;;;;;;;;;;;;;;12.85;100.00;97171.31;5038129;28;19931;-85
2021/11/02 11:48:11;;;;;;;;;;;;;;;12.29;100.00;97169.53;5085501;28;19932;-84
2021/11/02 11:50:41;;;;;;;;;;;;;;;11.80;100.00;97171.31;5075037;28;19924;-85
2021/11/02 11:53:18;;;;;;;;;;;;;;;11.82;100.00;97177.19;5054522;28;20295;-85
2021/11/02 11:55:48;;;;;;;;;;;;;;;12.17;100.00;97169.78;5054297;28;19924;-85
2021/11/02 11:58:17;;;;;;;;;;;;;;;13.05;100.00;97173.44;5068114;28;19924;-85
2021/11/02 12:00:46;;;;;;;;;;;;;;;12.79;100.00;97178.84;5074629;28;20003;-85
2021/11/02 12:03:19;;;;;;;;;;;;;;;12.47;100.00;97176.97;5041493;28;19924;-85
2021/11/02 12:05:53;;;;;;;;;;;;;;;12.70;100.00;97170.53;5052772;28;19928;-85
2021/11/02 12:08:22;;;;;;;;;;;;;;;12.97;100.00;97172.25;5050449;28;20073;-85
2021/11/02 12:10:51;;;;;;;;;;;;;;;13.14;100.00;97162.13;5052890;28;19940;-85
2021/11/02 12:13:19;;;;;;;;;;;;;;;13.04;100.00;97172.66;5068968;28;19977;-85
2021/11/02 12:16:08;;;;;;;;;;;;;;;13.15;100.00;97172.06;5061780;28;20019;-85
2021/11/02 12:18:40;;;;;;;;;;;;;;;12.98;100.00;97173.81;5078363;28;19924;-85
2021/11/02 12:21:16;;;;;;;;;;;;;;;13.36;100.00;97168.84;5058329;28;20011;-85
2021/11/02 12:23:45;;;;;;;;;;;;;;;13.23;100.00;97167.63;5054614;28;20017;-84
2021/11/02 12:26:13;;;;;;;;;;;;;;;13.48;100.00;97170.56;5078082;28;19967;-85
2021/11/02 12:28:47;;;;;;;;;;;;;;;12.94;100.00;97162.00;5096297;28;19932;-85
2021/11/02 12:31:15;;;;;;;;;;;;;;;12.18;100.00;97158.09;5058096;28;20441;-85
2021/11/02 12:33:46;;;;;;;;;;;;;;;12.10;100.00;97162.50;5086319;28;20019;-85
2021/11/02 12:36:21;;;;;;;;;;;;;;;12.14;100.00;97176.34;5057693;28;20418;-85
2021/11/02 12:38:48;;;;;;;;;;;;;;;12.18;100.00;97162.91;5052315;28;19927;-85
2021/11/02 12:41:17;;;;;;;;;;;;;;;12.89;100.00;97162.72;5095890;28;19969;-85
2021/11/02 12:44:00;;;;;;;;;;;;;;;12.63;100.00;97176.53;5077953;28;20268;-85
2021/11/02 12:46:31;;;;;;;;;;;;;;;12.66;100.00;97167.16;5041910;28;19952;-85
2021/11/02 12:49:02;;;;;;;;;;;;;;;12.39;100.00;97168.19;5061366;28;20010;-85
2021/11/02 12:51:34;;;;;;;;;;;;;;;12.98;100.00;97165.41;5094836;28;19924;-85
2021/11/02 12:54:04;;;;;;;;;;;;;;;13.32;100.00;97162.66;5082068;28;19967;-85
2021/11/02 12:56:34;;;;;;;;;;;;;;;13.27;100.00;97157.75;5041471;28;19925;-85
2021/11/02 12:59:22;;;;;;;;;;;;;;;13.93;100.00;97157.91;5043753;28;20020;-85
2021/11/02 13:01:51;;;;;;;;;;;;;;;13.95;100.00;97161.75;5041517;28;20448;-85
2021/11/02 13:04:18;;;;;;;;;;;;;;;14.52;100.00;97156.34;5061092;28;19924;-85
2021/11/02 13:06:52;;;;;;;;;;;;;;;14.58;100.00;97151.56;5040771;28;19947;-85
2021/11/02 13:09:20;;;;;;;;;;;;;;;14.78;100.00;97162.75;5047340;28;20040;-85
2021/11/02 13:12:03;;;;;;;;;;;;;;;14.59;100.00;97167.13;5078393;28;20281;-85
2021/11/02 13:14:35;;;;;;;;;;;;;;;14.74;100.00;97167.03;5081444;28;19924;-85
2021/11/02 13:17:05;;;;;;;;;;;;;;;14.70;100.00;97178.50;5057069;28;19931;-85
2021/11/02 13:19:35;;;;;;;;;;;;;;;14.64;100.00;97171.28;5043232;28;19928;-85
2021/11/02 13:22:07;;;;;;;;;;;;;;;15.18;100.00;97168.19;5044079;28;20019;-85
2021/11/02 13:24:35;;;;;;;;;;;;;;;13.38;100.00;97162.75;5093279;28;19924;-85
2021/11/02 13:27:05;;;;;;;;;;;;;;;13.39;100.00;97172.72;5060712;28;20299;-85
2021/11/02 13:29:33;;;;;;;;;;;;;;;12.70;100.00;97176.91;5077109;28;19928;-85
2021/11/02 13:32:04;;;;;;;;;;;;;;;12.74;100.00;97174.69;5077092;28;19928;-85
2021/11/02 13:34:36;;;;;;;;;;;;;;;12.86;100.00;97178.44;5076772;28;19931;-85
2021/11/02 13:37:05;;;;;;;;;;;;;;;12.67;100.00;97174.28;5076965;28;19938;-85
2021/11/02 13:39:49;;;;;;;;;;;;;;;13.12;100.00;97184.25;5076632;28;19931;-85
2021/11/02 13:42:17;;;;;;;;;;;;;;;12.66;100.00;97176.31;5057025;28;19924;-85
2021/11/02 13:44:46;;;;;;;;;;;;;;;12.77;100.00;97175.75;5088854;28;19924;-85
2021/11/02 13:47:15;;;;;;;;;;;;;;;12.96;100.00;97177.09;5063749;28;19924;-85
2021/11/02 13:49:43;;;;;;;;;;;;;;;13.33;100.00;97172.63;5076672;28;19971;-85
2021/11/02 13:52:11;;;;;;;;;;;;;;;13.61;100.00;97171.00;5043214;28;19973;-85
2021/11/02 13:54:38;;;;;;;;;;;;;;;13.87;100.00;97168.31;5060373;28;19927;-85
2021/11/02 13:57:06;;;;;;;;;;;;;;;14.18;100.00;97168.44;5056562;28;19944;-85
2021/11/02 13:59:33;;;;;;;;;;;;;;;13.70;100.00;97167.28;5100234;28;19986;-85
2021/11/02 14:02:01;;;;;;;;;;;;;;;13.85;100.00;97163.19;5059518;28;19928;-84
2021/11/02 14:04:39;;;;;;;;;;;;;;;13.20;100.00;97162.97;5059792;28;19924;-85
2021/11/02 14:07:07;;;;;;;;;;;;;;;13.23;100.00;97159.97;5058655;28;19967;-85
2021/11/02 14:09:39;;;;;;;;;;;;;;;13.30;100.00;97172.84;5059850;28;19930;-85
2021/11/02 14:12:21;;;;;;;;;;;;;;;13.62;100.00;97169.75;5076353;28;20323;-85
2021/11/02 14:14:48;;;;;;;;;;;;;;;12.99;100.00;97170.53;5056161;28;20346;-85
2021/11/02 14:17:17;;;;;;;;;;;;;;;12.94;100.00;97173.22;5055117;28;19958;-85
2021/11/02 14:19:52;;;;;;;;;;;;;;;13.37;100.00;97173.22;5076025;28;19924;-85
2021/11/02 14:22:38;;;;;;;;;;;;;;;13.68;100.00;97176.22;5076189;28;19928;-85
2021/11/02 14:25:12;;;;;;;;;;;;;;;13.78;100.00;97169.19;5076150;28;19931;-85
2021/11/02 14:27:43;;;;;;;;;;;;;;;13.32;100.00;97176.69;5075752;28;19929;-85
2021/11/02 14:30:23;;;;;;;;;;;;;;;13.20;100.00;97168.59;5039511;28;20294;-85
2021/11/02 14:33:21;;;;;;;;;;;;;;;13.00;100.00;97174.13;5077080;28;19924;-85
2021/11/02 14:35:56;;;;;;;;;;;;;;;12.61;100.00;97174.22;5058987;28;19924;-85
2021/11/02 14:38:28;;;;;;;;;;;;;;;12.89;100.00;97176.72;5059288;28;19935;-85
2021/11/02 14:41:21;;;;;;;;;;;;;;;13.31;100.00;97180.00;5041948;28;20406;-85
2021/11/02 14:43:48;;;;;;;;;;;;;;;13.56;100.00;97180.13;5075846;28;20425;-85
2021/11/02 14:46:19;;;;;;;;;;;;;;;13.62;100.00;97172.56;5093535;28;20379;-84
2021/11/02 14:48:48;;;;;;;;;;;;;;;13.55;100.00;97172.19;5058835;28;20339;-85
2021/11/02 14:51:22;;;;;;;;;;;;;;;13.50;100.00;97175.69;5059135;28;20173;-85
2021/11/02 14:53:49;;;;;;;;;;;;;;;13.82;100.00;97174.59;5075421;28;20446;-85
2021/11/02 14:56:30;;;;;;;;;;;;;;;13.69;100.00;97171.38;5038809;28;20294;-85
2021/11/02 14:58:58;;;;;;;;;;;;;;;13.92;100.00;97173.97;5058071;28;19928;-85
2021/11/02 15:01:38;;;;;;;;;;;;;;;13.88;100.00;97172.66;5055498;28;19970;-85
2021/11/02 15:04:20;;;;;;;;;;;;;;;13.80;100.00;97174.31;5062260;28;19934;-85
2021/11/02 15:06:53;;;;;;;;;;;;;;;13.75;100.00;97180.63;5075392;28;20300;-84
2021/11/02 15:09:22;;;;;;;;;;;;;;;14.32;100.00;97178.84;5025282;28;20379;-84
2021/11/02 15:11:51;;;;;;;;;;;;;;;14.68;100.00;97183.84;5068388;28;20379;-85
2021/11/02 15:14:22;;;;;;;;;;;;;;;14.74;100.00;97170.59;5075214;28;19928;-85
2021/11/02 15:16:51;;;;;;;;;;;;;;;14.66;100.00;97175.13;5075004;28;20507;-85
2021/11/02 15:19:20;;;;;;;;;;;;;;;14.17;100.00;97172.50;5054745;28;19924;-85
2021/11/02 15:22:00;;;;;;;;;;;;;;;14.64;100.00;97172.06;5084252;28;20345;-85
2021/11/02 15:24:29;;;;;;;;;;;;;;;14.70;100.00;97172.88;5075304;28;19931;-85
2021/11/02 15:27:04;;;;;;;;;;;;;;;14.56;100.00;97176.56;5038511;28;20042;-85
2021/11/02 15:29:33;;;;;;;;;;;;;;;14.06;100.00;97172.38;5056807;28;19925;-85
2021/11/02 15:32:03;;;;;;;;;;;;;;;14.19;100.00;97170.00;5037866;28;19928;-85
2021/11/02 15:34:59;;;;;;;;;;;;;;;14.02;100.00;97181.03;5072360;28;20460;-85
2021/11/02 15:37:34;;;;;;;;;;;;;;;14.38;100.00;97171.25;5029115;28;19924;-85
2021/11/02 15:40:06;;;;;;;;;;;;;;;14.77;100.00;97175.22;5074932;28;19924;-85
2021/11/02 15:42:37;;;;;;;;;;;;;;;14.40;100.00;97174.34;5071079;28;19997;-85
2021/11/02 15:45:23;;;;;;;;;;;;;;;13.97;100.00;97175.31;5042742;28;19924;-85
2021/11/02 15:47:51;;;;;;;;;;;;;;;13.99;100.00;97178.41;5074139;28;19924;-85
2021/11/02 15:50:23;;;;;;;;;;;;;;;13.23;100.00;97178.84;5074605;28;20190;-85
2021/11/02 15:52:58;;;;;;;;;;;;;;;13.49;100.00;97176.94;5054492;28;19967;-85
2021/11/02 15:55:26;;;;;;;;;;;;;;;14.14;100.00;97181.91;5039081;28;19951;-85
2021/11/02 15:57:55;;;;;;;;;;;;;;;13.90;100.00;97186.97;5074952;28;19924;-85
2021/11/02 16:00:30;;;;;;;;;;;;;;;14.09;100.00;97193.84;5057112;28;19930;-85
2021/11/02 16:02:57;;;;;;;;;;;;;;;14.45;100.00;97190.47;5057885;28;19924;-85
2021/11/02 16:05:26;;;;;;;;;;;;;;;14.71;100.00;97188.47;5056501;28;20387;-85
2021/11/02 16:07:54;;;;;;;;;;;;;;;14.66;100.00;97194.78;5091464;28;19947;-85
2021/11/02 16:10:26;;;;;;;;;;;;;;;14.14;100.00;97190.34;5092229;28;19963;-85
2021/11/02 16:12:53;;;;;;;;;;;;;;;14.19;100.00;97203.69;5054357;28;19925;-85
2021/11/02 16:15:22;;;;;;;;;;;;;;;14.00;100.00;97196.78;5068058;28;19924;-85
2021/11/02 16:17:53;;;;;;;;;;;;;;;14.45;100.00;97198.91;5060529;28;19928;-85
2021/11/02 16:20:22;;;;;;;;;;;;;;;14.41;100.00;97201.16;5037806;28;20022;-85
2021/11/02 16:22:58;;;;;;;;;;;;;;;14.44;100.00;97208.59;5073927;28;19928;-85
2021/11/02 16:25:31;;;;;;;;;;;;;;;14.18;100.00;97202.13;5054113;28;19936;-85
2021/11/02 16:28:03;;;;;;;;;;;;;;;14.51;100.00;97210.22;5028059;28;19933;-85
2021/11/02 16:30:34;;;;;;;;;;;;;;;14.14;100.00;97207.19;5073486;28;20403;-85
2021/11/02 16:33:07;;;;;;;;;;;;;;;14.40;100.00;97211.63;5027879;28;19928;-85
2021/11/02 16:35:39;;;;;;;;;;;;;;;14.48;100.00;97211.97;5074055;28;19947;-85
2021/11/02 16:38:23;;;;;;;;;;;;;;;14.41;100.00;97212.41;5073794;28;19963;-85
2021/11/02 16:40:55;;;;;;;;;;;;;;;14.51;100.00;97219.41;5054001;28;19924;-85
2021/11/02 16:43:23;;;;;;;;;;;;;;;14.34;100.00;97215.66;5090527;28;19924;-85
2021/11/02 16:45:51;;;;;;;;;;;;;;;14.01;100.00;97223.63;5053674;28;19924;-85
2021/11/02 16:48:18;;;;;;;;;;;;;;;13.66;100.00;97229.22;5052833;28;19927;-85
2021/11/02 16:50:51;;;;;;;;;;;;;;;13.38;100.00;97233.66;5073976;28;19924;-85
2021/11/02 16:53:23;;;;;;;;;;;;;;;13.25;100.00;97240.81;5053972;28;19928;-84
2021/11/02 16:55:50;;;;;;;;;;;;;;;13.06;100.00;97236.66;5078534;28;20394;-84
2021/11/02 16:58:17;;;;;;;;;;;;;;;13.38;100.00;97241.28;5107598;28;19928;-85
2021/11/02 17:00:45;;;;;;;;;;;;;;;12.78;100.00;97250.91;5077243;28;20384;-85
2021/11/02 17:03:19;;;;;;;;;;;;;;;12.43;100.00;97258.38;5074474;28;19925;-85
2021/11/02 17:05:49;;;;;;;;;;;;;;;12.34;100.00;97263.28;5095000;28;20298;-85
2021/11/02 17:08:17;;;;;;;;;;;;;;;12.47;100.00;97270.19;5077932;28;19967;-85
2021/11/02 17:10:49;;;;;;;;;;;;;;;12.03;100.00;97280.44;5040534;28;19931;-85
2021/11/02 17:13:20;;;;;;;;;;;;;;;12.21;100.00;97285.16;5051700;28;19924;-86
2021/11/02 17:15:48;;;;;;;;;;;;;;;12.75;100.00;97285.50;5073948;28;19986;-85
2021/11/02 17:18:17;;;;;;;;;;;;;;;12.90;100.00;97279.16;5067182;28;19924;-86
2021/11/02 17:20:59;;;;;;;;;;;;;;;12.71;100.00;97279.31;5059846;28;19925;-86
2021/11/02 17:23:30;;;;;;;;;;;;;;;13.23;100.00;97288.19;5057395;28;19932;-85
2021/11/02 17:25:57;;;;;;;;;;;;;;;13.00;100.00;97284.22;5038383;28;20379;-85
2021/11/02 17:28:24;;;;;;;;;;;;;;;13.21;100.00;97290.72;5060366;28;20394;-85
2021/11/02 17:30:52;;;;;;;;;;;;;;;12.96;100.00;97294.84;5076996;28;20297;-85
2021/11/02 17:33:19;;;;;;;;;;;;;;;13.38;100.00;97297.38;5060514;28;20375;-85
2021/11/02 17:35:54;;;;;;;;;;;;;;;13.33;100.00;97292.47;5093250;28;19935;-85
2021/11/02 17:38:22;;;;;;;;;;;;;;;13.32;100.00;97293.72;5044454;28;19978;-85
2021/11/02 17:40:49;;;;;;;;;;;;;;;13.43;100.00;97285.50;5076688;28;20023;-85
2021/11/02 17:43:16;;;;;;;;;;;;;;;13.51;100.00;97300.69;5076315;28;19931;-85
2021/11/02 17:45:44;;;;;;;;;;;;;;;13.41;100.00;97300.00;5077036;28;19928;-85
2021/11/02 17:48:15;;;;;;;;;;;;;;;13.16;100.00;97297.00;5057296;28;19956;-84
2021/11/02 17:50:44;;;;;;;;;;;;;;;13.03;100.00;97300.09;5093796;28;19924;-85